Time;durP1;ratioP1;P1;durP2;ratioP2;P2;SDS_P1;SDS_P2;PMS_P1;PMS_P2;Temp;Humidity;BMP_temperature;BMP_pressure;BME280_temperature;BME280_humidity;BME280_pressure;Samples;Min_cycle;Max_cycle;Signal;HPM_P1;HPM_P2
2021/11/03 00:02:05;;;;;;;10.40;5.30;;;7.20;93.70;;;;;;4958459;28;20085;-72
2021/11/03 00:04:34;;;;;;;11.10;5.72;;;7.10;93.70;;;;;;4952369;28;20126;-73
2021/11/03 00:06:59;;;;;;;11.52;5.97;;;7.10;93.70;;;;;;4946864;28;20035;-72
2021/11/03 00:09:26;;;;;;;10.10;6.47;;;7.00;93.70;;;;;;4950753;28;20092;-72
2021/11/03 00:11:53;;;;;;;10.35;6.60;;;7.00;93.80;;;;;;4969971;28;20047;-72
2021/11/03 00:14:18;;;;;;;11.23;7.57;;;6.90;94.20;;;;;;4966319;28;20073;-72
2021/11/03 00:16:44;;;;;;;10.65;6.55;;;7.00;94.50;;;;;;4945518;28;20043;-72
2021/11/03 00:19:10;;;;;;;11.45;7.35;;;7.00;94.70;;;;;;4942745;28;20082;-72
2021/11/03 00:21:35;;;;;;;13.38;7.38;;;7.00;94.80;;;;;;4948280;28;20036;-72
2021/11/03 00:24:02;;;;;;;16.70;7.85;;;7.00;94.80;;;;;;4954202;28;20093;-71
2021/11/03 00:26:27;;;;;;;15.05;7.68;;;7.00;94.90;;;;;;4972665;28;20089;-71
2021/11/03 00:28:53;;;;;;;12.95;7.82;;;7.00;94.90;;;;;;4957887;28;20042;-71
2021/11/03 00:31:19;;;;;;;11.65;7.47;;;7.00;94.90;;;;;;4947771;28;20054;-72
2021/11/03 00:33:46;;;;;;;10.05;6.72;;;7.00;95.00;;;;;;4954876;28;20483;-71
2021/11/03 00:36:12;;;;;;;11.93;6.32;;;7.00;94.70;;;;;;4973042;28;20816;-72
2021/11/03 00:38:38;;;;;;;11.07;6.00;;;6.90;94.30;;;;;;4958574;28;20035;-71
2021/11/03 00:41:04;;;;;;;9.13;6.20;;;6.90;93.90;;;;;;4950622;28;20062;-71
2021/11/03 00:43:30;;;;;;;13.13;6.35;;;6.80;93.90;;;;;;4954927;28;20116;-71
2021/11/03 00:45:59;;;;;;;11.25;7.25;;;6.70;94.30;;;;;;4959281;28;20035;-71
2021/11/03 00:48:24;;;;;;;10.07;6.22;;;6.70;94.30;;;;;;4957323;28;20073;-72
2021/11/03 00:50:51;;;;;;;10.38;6.85;;;6.70;94.50;;;;;;4965781;28;20035;-71
2021/11/03 00:53:18;;;;;;;11.50;7.28;;;6.70;94.70;;;;;;4958228;28;20058;-71
2021/11/03 00:55:45;;;;;;;12.13;7.13;;;6.70;94.80;;;;;;4971032;28;20142;-71
2021/11/03 00:58:11;;;;;;;13.40;7.63;;;6.70;94.80;;;;;;4958744;28;20125;-72
2021/11/03 01:00:37;;;;;;;11.18;7.40;;;6.70;94.80;;;;;;4963601;28;20043;-72
2021/11/03 01:03:05;;;;;;;13.38;7.65;;;6.80;94.90;;;;;;4958254;28;20039;-71
2021/11/03 01:05:31;;;;;;;10.50;7.03;;;6.80;95.00;;;;;;4963954;28;20038;-71
2021/11/03 01:07:57;;;;;;;13.32;7.93;;;6.80;95.00;;;;;;4953047;28;20039;-72
2021/11/03 01:10:26;;;;;;;17.55;7.95;;;6.70;95.00;;;;;;4970005;28;20376;-72
2021/11/03 01:12:53;;;;;;;11.73;6.82;;;6.80;95.10;;;;;;4958727;28;20109;-72
2021/11/03 01:15:22;;;;;;;11.85;7.30;;;6.70;95.00;;;;;;4973295;28;20088;-72
2021/11/03 01:17:48;;;;;;;12.52;7.70;;;6.70;94.70;;;;;;4950807;28;20027;-71
2021/11/03 01:20:15;;;;;;;13.98;7.97;;;6.70;94.80;;;;;;4967381;28;20088;-71
2021/11/03 01:22:41;;;;;;;12.68;8.00;;;6.60;94.80;;;;;;4958542;28;20086;-72
2021/11/03 01:25:09;;;;;;;12.18;7.45;;;6.60;94.70;;;;;;4956326;28;20092;-71
2021/11/03 01:27:35;;;;;;;12.80;8.13;;;6.60;95.10;;;;;;4953419;28;20026;-73
2021/11/03 01:30:01;;;;;;;13.82;8.40;;;6.60;94.90;;;;;;4947318;28;20031;-74
2021/11/03 01:32:27;;;;;;;12.90;8.40;;;6.60;94.80;;;;;;4948306;28;20039;-74
2021/11/03 01:34:53;;;;;;;13.57;8.70;;;6.60;94.90;;;;;;4968393;28;20790;-74
2021/11/03 01:37:19;;;;;;;14.05;7.88;;;6.60;94.90;;;;;;4966835;28;20138;-73
2021/11/03 01:39:45;;;;;;;15.25;8.23;;;6.50;94.80;;;;;;4959345;28;20786;-73
2021/11/03 01:42:11;;;;;;;11.82;7.20;;;6.60;94.80;;;;;;4961767;28;20023;-74
2021/11/03 01:44:37;;;;;;;14.57;8.57;;;6.50;94.80;;;;;;4963370;28;20615;-74
2021/11/03 01:47:40;;;;;;;11.07;7.63;;;6.50;94.80;;;;;;4965140;28;20137;-74
2021/11/03 01:50:18;;;;;;;12.43;7.68;;;6.50;94.70;;;;;;4963398;28;20030;-73
2021/11/03 01:52:47;;;;;;;12.63;7.78;;;6.40;94.60;;;;;;4966864;28;20487;-74
2021/11/03 01:55:15;;;;;;;11.20;7.25;;;6.40;94.60;;;;;;4959909;28;20045;-73
2021/11/03 01:57:45;;;;;;;11.07;6.82;;;6.30;94.50;;;;;;4958843;28;20063;-74
2021/11/03 02:00:18;;;;;;;10.73;7.38;;;6.30;94.50;;;;;;4966386;28;20034;-74
2021/11/03 02:02:55;;;;;;;11.00;7.25;;;6.20;94.50;;;;;;4964233;28;20039;-74
2021/11/03 02:05:21;;;;;;;9.55;6.68;;;6.20;94.40;;;;;;4968686;28;20110;-74
2021/11/03 02:07:51;;;;;;;13.00;7.03;;;6.10;94.40;;;;;;4955234;28;20031;-74
2021/11/03 02:10:18;;;;;;;10.93;7.07;;;6.10;94.40;;;;;;4966227;28;20027;-74
2021/11/03 02:12:46;;;;;;;13.93;7.43;;;6.10;94.40;;;;;;4964111;28;20027;-74
2021/11/03 02:15:14;;;;;;;11.88;7.18;;;6.10;94.50;;;;;;4965321;28;20070;-74
2021/11/03 02:17:41;;;;;;;12.13;6.38;;;6.10;94.50;;;;;;4964320;28;20039;-74
2021/11/03 02:20:11;;;;;;;12.80;7.47;;;6.00;94.60;;;;;;4962478;28;20042;-74
2021/11/03 02:22:55;;;;;;;11.80;7.18;;;6.00;94.60;;;;;;4970535;28;20035;-74
2021/11/03 02:25:31;;;;;;;14.10;8.27;;;6.00;94.70;;;;;;4968201;28;20138;-74
2021/11/03 02:27:58;;;;;;;14.35;7.45;;;6.00;94.90;;;;;;4970324;28;20089;-74
2021/11/03 02:30:25;;;;;;;17.55;8.98;;;6.00;95.00;;;;;;4965381;28;20062;-73
2021/11/03 02:33:01;;;;;;;17.35;8.90;;;6.00;95.00;;;;;;4950677;28;20042;-73
2021/11/03 02:35:27;;;;;;;14.70;7.97;;;6.00;95.10;;;;;;4972648;28;20122;-73
2021/11/03 02:37:56;;;;;;;17.48;8.30;;;6.00;95.10;;;;;;4958835;28;20027;-73
2021/11/03 02:40:39;;;;;;;13.85;8.23;;;6.00;95.10;;;;;;4967890;28;20024;-73
2021/11/03 02:43:21;;;;;;;15.00;8.25;;;6.00;95.00;;;;;;4960132;28;20035;-73
2021/11/03 02:45:54;;;;;;;19.20;10.23;;;6.00;94.90;;;;;;4946602;28;20222;-74
2021/11/03 02:48:23;;;;;;;12.27;7.63;;;6.00;94.90;;;;;;4967097;28;20066;-74
2021/11/03 02:51:14;;;;;;;12.50;7.25;;;5.90;94.90;;;;;;4966851;28;20810;-73
2021/11/03 02:53:47;;;;;;;12.65;7.43;;;5.90;94.80;;;;;;4970926;28;20039;-73
2021/11/03 02:56:16;;;;;;;13.13;7.18;;;5.90;94.80;;;;;;4969332;28;20042;-74
2021/11/03 02:58:42;;;;;;;11.98;7.70;;;5.80;94.70;;;;;;4949575;28;20120;-73
2021/11/03 03:01:29;;;;;;;13.35;8.07;;;5.80;94.70;;;;;;4954017;28;20035;-74
2021/11/03 03:03:55;;;;;;;13.07;8.07;;;5.80;94.90;;;;;;4956017;28;20050;-73
2021/11/03 03:06:24;;;;;;;14.23;8.68;;;5.80;94.90;;;;;;4971281;28;20436;-74
2021/11/03 03:08:53;;;;;;;12.65;7.18;;;5.80;94.90;;;;;;4964848;28;20465;-73
2021/11/03 03:11:20;;;;;;;12.25;7.78;;;5.80;94.90;;;;;;4963912;28;20114;-73
2021/11/03 03:13:46;;;;;;;11.13;6.90;;;5.70;94.90;;;;;;4963888;28;20828;-73
2021/11/03 03:16:12;;;;;;;11.63;6.88;;;5.70;94.60;;;;;;4968349;28;20150;-74
2021/11/03 03:18:38;;;;;;;11.18;7.20;;;5.60;94.40;;;;;;4956338;28;20031;-73
2021/11/03 03:21:04;;;;;;;11.95;7.53;;;5.60;94.50;;;;;;4951047;28;20066;-74
2021/11/03 03:23:30;;;;;;;14.68;7.93;;;5.60;94.50;;;;;;4971634;28;20503;-74
2021/11/03 03:25:57;;;;;;;11.07;7.05;;;5.50;94.50;;;;;;4967404;28;20809;-74
2021/11/03 03:28:24;;;;;;;12.32;7.07;;;5.50;94.60;;;;;;4969925;28;20035;-74
2021/11/03 03:30:49;;;;;;;11.30;7.10;;;5.50;94.60;;;;;;4969373;28;20031;-74
2021/11/03 03:33:16;;;;;;;16.00;8.10;;;5.40;94.80;;;;;;4960300;28;20031;-74
2021/11/03 03:35:41;;;;;;;11.23;7.10;;;5.40;94.90;;;;;;4956821;28;20577;-74
2021/11/03 03:38:07;;;;;;;11.93;7.60;;;5.40;94.80;;;;;;4956091;28;20064;-74
2021/11/03 03:40:33;;;;;;;12.20;8.10;;;5.40;94.70;;;;;;4955238;28;20031;-73
2021/11/03 03:42:59;;;;;;;13.98;8.05;;;5.40;94.70;;;;;;4968684;28;20791;-74
2021/11/03 03:45:25;;;;;;;13.25;7.53;;;5.40;94.60;;;;;;4960543;28;20041;-74
2021/11/03 03:47:53;;;;;;;13.35;7.80;;;5.40;94.70;;;;;;4961303;28;20528;-74
2021/11/03 03:50:19;;;;;;;13.55;7.82;;;5.40;94.60;;;;;;4947483;28;20027;-74
2021/11/03 03:52:45;;;;;;;10.90;7.40;;;5.40;94.60;;;;;;4965047;28;20466;-74
2021/11/03 03:55:11;;;;;;;13.23;8.35;;;5.30;94.60;;;;;;4967391;28;20031;-74
2021/11/03 03:57:38;;;;;;;13.32;7.70;;;5.30;94.50;;;;;;4964602;28;20051;-74
2021/11/03 04:00:09;;;;;;;12.52;7.70;;;5.30;94.50;;;;;;4971927;28;20058;-74
2021/11/03 04:02:42;;;;;;;17.20;7.70;;;5.30;94.60;;;;;;4951835;28;20046;-73
2021/11/03 04:05:09;;;;;;;16.67;8.20;;;5.30;94.80;;;;;;4965455;28;20065;-74
2021/11/03 04:07:35;;;;;;;17.40;8.35;;;5.40;95.00;;;;;;4955443;28;20035;-74
2021/11/03 04:10:02;;;;;;;14.80;8.13;;;5.40;95.10;;;;;;4973247;28;20619;-74
2021/11/03 04:12:29;;;;;;;13.02;8.02;;;5.40;95.10;;;;;;4970886;28;20031;-74
2021/11/03 04:14:55;;;;;;;13.15;8.13;;;5.40;95.20;;;;;;4961198;28;20090;-74
2021/11/03 04:17:21;;;;;;;12.20;7.80;;;5.40;95.20;;;;;;4969110;28;20033;-74
2021/11/03 04:19:47;;;;;;;14.70;8.18;;;5.40;95.30;;;;;;4952124;28;20019;-73
2021/11/03 04:22:13;;;;;;;14.23;7.82;;;5.50;95.20;;;;;;4959358;28;20134;-74
2021/11/03 04:24:43;;;;;;;12.55;8.00;;;5.50;94.60;;;;;;4968870;28;20557;-73
2021/11/03 04:27:08;;;;;;;12.60;7.70;;;5.50;94.50;;;;;;4971422;28;20109;-73
2021/11/03 04:29:34;;;;;;;13.95;8.55;;;5.50;94.40;;;;;;4964040;28;20038;-73
2021/11/03 04:32:00;;;;;;;14.43;7.78;;;5.50;94.40;;;;;;4966228;28;20457;-73
2021/11/03 04:34:26;;;;;;;16.90;9.70;;;5.40;94.20;;;;;;4955820;28;20041;-73
2021/11/03 04:36:57;;;;;;;14.20;7.93;;;5.30;94.30;;;;;;4969729;28;20099;-74
2021/11/03 04:39:24;;;;;;;14.73;7.82;;;5.30;94.30;;;;;;4969658;28;20034;-74
2021/11/03 04:41:51;;;;;;;14.73;8.73;;;5.20;94.30;;;;;;4964259;28;20094;-73
2021/11/03 04:44:17;;;;;;;16.02;9.43;;;5.20;94.30;;;;;;4951371;28;20046;-73
2021/11/03 04:46:44;;;;;;;16.63;9.68;;;5.10;94.50;;;;;;4963826;28;20042;-73
2021/11/03 04:49:12;;;;;;;16.17;9.52;;;5.10;94.40;;;;;;4965420;28;20033;-72
2021/11/03 04:51:39;;;;;;;14.05;7.65;;;5.10;94.30;;;;;;4957627;28;20399;-73
2021/11/03 04:54:07;;;;;;;14.75;8.93;;;5.00;94.40;;;;;;4960924;28;20892;-73
2021/11/03 04:56:33;;;;;;;15.02;8.60;;;5.00;94.50;;;;;;4964095;28;20187;-73
2021/11/03 04:58:58;;;;;;;17.63;8.32;;;4.90;94.50;;;;;;4969475;28;20039;-73
2021/11/03 05:01:25;;;;;;;13.73;8.63;;;4.90;94.30;;;;;;4947911;28;20050;-73
2021/11/03 05:03:54;;;;;;;11.75;7.65;;;4.90;94.30;;;;;;4966785;28;20155;-73
2021/11/03 05:06:23;;;;;;;13.60;8.25;;;4.90;94.50;;;;;;4965125;28;20031;-73
2021/11/03 05:08:52;;;;;;;13.93;7.95;;;4.90;94.50;;;;;;4967580;28;20061;-73
2021/11/03 05:11:20;;;;;;;12.57;8.35;;;4.90;94.60;;;;;;4957434;28;20510;-73
2021/11/03 05:13:48;;;;;;;14.00;8.48;;;4.90;94.60;;;;;;4956381;28;20026;-74
2021/11/03 05:16:18;;;;;;;13.65;8.73;;;4.80;94.60;;;;;;4971213;28;20035;-74
2021/11/03 05:18:47;;;;;;;15.10;8.27;;;4.90;94.70;;;;;;4968840;28;20118;-73
2021/11/03 05:21:13;;;;;;;15.68;9.00;;;4.90;94.80;;;;;;4969699;28;20039;-74
2021/11/03 05:23:40;;;;;;;14.98;8.98;;;4.90;94.80;;;;;;4959974;28;20041;-73
2021/11/03 05:26:07;;;;;;;15.23;8.50;;;4.90;94.70;;;;;;4967293;28;20492;-74
2021/11/03 05:28:33;;;;;;;14.55;8.50;;;5.00;94.80;;;;;;4953346;28;20047;-75
2021/11/03 05:30:59;;;;;;;15.07;8.25;;;4.90;94.90;;;;;;4953609;28;20546;-74
2021/11/03 05:33:25;;;;;;;15.93;8.75;;;5.00;95.00;;;;;;4951538;28;20047;-73
2021/11/03 05:35:51;;;;;;;13.35;8.57;;;5.00;95.00;;;;;;4958182;28;20046;-74
2021/11/03 05:38:17;;;;;;;16.33;8.60;;;5.00;94.90;;;;;;4955796;28;20039;-73
2021/11/03 05:40:43;;;;;;;17.42;7.97;;;5.00;95.00;;;;;;4974803;28;20134;-73
2021/11/03 05:43:09;;;;;;;14.10;8.07;;;5.00;95.00;;;;;;4948372;28;20035;-74
2021/11/03 05:45:35;;;;;;;18.48;8.68;;;5.10;94.90;;;;;;4948134;28;20039;-74
2021/11/03 05:48:00;;;;;;;14.35;8.63;;;5.10;95.10;;;;;;4966868;28;20071;-74
2021/11/03 05:50:31;;;;;;;16.20;8.65;;;5.20;94.90;;;;;;4956747;28;20043;-73
2021/11/03 05:52:57;;;;;;;14.00;8.68;;;5.30;94.80;;;;;;4955463;28;20030;-74
2021/11/03 05:55:23;;;;;;;14.15;7.72;;;5.40;94.80;;;;;;4962361;28;20031;-74
2021/11/03 05:57:50;;;;;;;12.55;7.40;;;5.50;94.70;;;;;;4963696;28;20046;-74
2021/11/03 06:00:22;;;;;;;14.63;8.30;;;5.50;94.40;;;;;;4963348;28;20139;-74
2021/11/03 06:02:48;;;;;;;13.00;8.52;;;5.70;94.30;;;;;;4952468;28;20487;-74
2021/11/03 06:05:15;;;;;;;13.07;7.93;;;5.70;94.20;;;;;;4961866;28;20042;-74
2021/11/03 06:07:47;;;;;;;13.60;8.57;;;5.80;94.50;;;;;;4956202;28;20110;-74
2021/11/03 06:10:16;;;;;;;14.05;8.70;;;5.90;94.00;;;;;;4956957;28;20035;-74
2021/11/03 06:12:43;;;;;;;14.50;8.52;;;6.00;94.00;;;;;;4960828;28;20031;-74
2021/11/03 06:15:09;;;;;;;13.68;8.05;;;6.10;93.90;;;;;;4959867;28;20520;-74
2021/11/03 06:17:35;;;;;;;14.80;8.23;;;6.10;94.00;;;;;;4962066;28;20869;-74
2021/11/03 06:20:01;;;;;;;19.35;9.13;;;6.20;94.00;;;;;;4954191;28;20031;-74
2021/11/03 06:22:26;;;;;;;14.35;8.65;;;6.30;93.80;;;;;;4955026;28;20043;-74
2021/11/03 06:24:53;;;;;;;14.90;8.38;;;6.30;93.70;;;;;;4959468;28;20039;-74
2021/11/03 06:27:19;;;;;;;19.30;8.07;;;6.40;93.70;;;;;;4959919;28;20042;-74
2021/11/03 06:29:45;;;;;;;13.63;7.25;;;6.50;93.70;;;;;;4954693;28;20027;-74
2021/11/03 06:32:11;;;;;;;13.30;8.52;;;6.60;93.60;;;;;;4958450;28;20027;-74
2021/11/03 06:34:37;;;;;;;14.38;8.95;;;6.60;93.50;;;;;;4959704;28;20046;-74
2021/11/03 06:37:03;;;;;;;13.27;8.07;;;6.70;93.50;;;;;;4954471;28;20102;-74
2021/11/03 06:39:31;;;;;;;14.93;8.90;;;6.80;93.40;;;;;;4959596;28;20080;-74
2021/11/03 06:41:57;;;;;;;13.23;8.38;;;6.80;93.40;;;;;;4955324;28;20037;-74
2021/11/03 06:44:23;;;;;;;11.88;7.57;;;6.90;93.40;;;;;;4958710;28;20038;-74
2021/11/03 06:46:49;;;;;;;10.75;7.57;;;6.90;93.30;;;;;;4961820;28;20031;-74
2021/11/03 06:49:15;;;;;;;12.73;8.23;;;7.00;93.30;;;;;;4976320;28;20039;-74
2021/11/03 06:51:41;;;;;;;14.75;8.10;;;7.10;93.20;;;;;;4947820;28;20733;-74
2021/11/03 06:54:07;;;;;;;12.20;7.55;;;7.10;93.10;;;;;;4957084;28;20038;-74
2021/11/03 06:56:33;;;;;;;12.95;8.02;;;7.10;92.70;;;;;;4968547;28;20066;-74
2021/11/03 06:59:00;;;;;;;11.63;7.38;;;7.20;92.80;;;;;;4948707;28;20094;-75
2021/11/03 07:01:26;;;;;;;11.55;7.78;;;7.20;92.80;;;;;;4954142;28;20039;-74
2021/11/03 07:03:52;;;;;;;13.52;7.95;;;7.30;93.10;;;;;;4958922;28;20081;-74
2021/11/03 07:06:19;;;;;;;16.48;8.60;;;7.30;92.70;;;;;;4958568;28;20043;-74
2021/11/03 07:08:47;;;;;;;16.92;8.90;;;7.30;92.80;;;;;;4954467;28;20038;-74
2021/11/03 07:11:13;;;;;;;12.32;8.07;;;7.30;92.80;;;;;;4955932;28;20086;-75
2021/11/03 07:13:39;;;;;;;12.45;8.00;;;7.40;92.70;;;;;;4967121;28;20050;-74
2021/11/03 07:16:05;;;;;;;13.60;8.77;;;7.40;92.60;;;;;;4956372;28;20027;-74
2021/11/03 07:18:31;;;;;;;13.48;8.20;;;7.50;92.60;;;;;;4960365;28;20407;-74
2021/11/03 07:20:57;;;;;;;13.82;8.68;;;7.50;92.40;;;;;;4948756;28;20039;-74
2021/11/03 07:23:23;;;;;;;13.88;8.48;;;7.50;92.50;;;;;;4953353;28;20541;-74
2021/11/03 07:25:49;;;;;;;11.63;7.63;;;7.60;92.50;;;;;;4956672;28;20042;-73
2021/11/03 07:28:15;;;;;;;11.50;7.32;;;7.70;92.50;;;;;;4952752;28;20424;-74
2021/11/03 07:30:42;;;;;;;17.27;9.15;;;7.70;92.40;;;;;;4970434;28;20034;-74
2021/11/03 07:33:10;;;;;;;12.60;7.97;;;7.80;92.50;;;;;;4970595;28;20031;-74
2021/11/03 07:35:37;;;;;;;10.82;7.53;;;7.90;92.40;;;;;;4958014;28;20078;-74
2021/11/03 07:38:04;;;;;;;13.63;8.27;;;7.90;92.30;;;;;;4959431;28;20046;-74
2021/11/03 07:40:34;;;;;;;11.68;7.68;;;8.00;92.20;;;;;;4957322;28;20129;-74
2021/11/03 07:43:02;;;;;;;12.18;7.78;;;8.10;92.20;;;;;;4958255;28;20030;-74
2021/11/03 07:45:30;;;;;;;13.05;8.00;;;8.10;92.10;;;;;;4945453;28;20031;-74
2021/11/03 07:47:56;;;;;;;11.98;7.25;;;8.20;92.50;;;;;;4967459;28;20031;-74
2021/11/03 07:50:25;;;;;;;12.85;8.18;;;8.20;92.10;;;;;;4953787;28;20485;-74
2021/11/03 07:52:51;;;;;;;13.27;7.80;;;8.20;92.00;;;;;;4953075;28;20041;-73
2021/11/03 07:55:17;;;;;;;11.38;7.47;;;8.30;92.10;;;;;;4947733;28;20030;-74
2021/11/03 07:57:43;;;;;;;13.70;8.38;;;8.40;92.10;;;;;;4957405;28;21131;-72
2021/11/03 08:00:18;;;;;;;18.58;8.52;;;8.40;92.00;;;;;;4960015;28;20046;-72
2021/11/03 08:02:43;;;;;;;13.10;8.35;;;8.50;91.90;;;;;;4954584;28;20045;-72
2021/11/03 08:05:09;;;;;;;13.27;8.00;;;8.60;91.60;;;;;;4959426;28;20031;-69
2021/11/03 08:07:34;;;;;;;13.13;8.20;;;8.60;91.70;;;;;;4966178;28;20027;-71
2021/11/03 08:10:00;;;;;;;11.85;7.15;;;8.70;91.60;;;;;;4957731;28;20395;-73
2021/11/03 08:12:26;;;;;;;11.77;8.02;;;8.80;91.60;;;;;;4961532;28;20534;-74
2021/11/03 08:14:51;;;;;;;12.25;8.25;;;8.80;91.50;;;;;;4955042;28;20046;-74
2021/11/03 08:17:21;;;;;;;17.23;7.35;;;8.90;91.40;;;;;;4952502;28;20042;-76
2021/11/03 08:19:51;;;;;;;14.10;8.13;;;8.90;91.40;;;;;;4977207;28;20077;-72
2021/11/03 08:22:24;;;;;;;13.43;7.60;;;9.00;91.30;;;;;;4972858;28;20042;-75
2021/11/03 08:24:52;;;;;;;12.80;8.63;;;9.10;91.30;;;;;;4960681;28;20110;-73
2021/11/03 08:27:18;;;;;;;12.68;7.72;;;9.10;91.30;;;;;;4957289;28;20039;-75
2021/11/03 08:29:46;;;;;;;13.02;8.05;;;9.20;91.00;;;;;;4957453;28;20027;-73
2021/11/03 08:32:14;;;;;;;13.45;8.20;;;9.30;91.00;;;;;;4951431;28;20038;-71
2021/11/03 08:34:40;;;;;;;12.60;7.35;;;9.50;90.80;;;;;;4950927;28;20035;-71
2021/11/03 08:37:08;;;;;;;12.80;8.48;;;9.60;90.70;;;;;;4955428;28;20027;-71
2021/11/03 08:39:37;;;;;;;10.85;7.53;;;9.70;90.70;;;;;;4982210;28;20078;-70
2021/11/03 08:42:03;;;;;;;12.25;7.63;;;9.80;90.60;;;;;;4959843;28;20038;-71
2021/11/03 08:44:30;;;;;;;13.15;8.05;;;9.80;90.50;;;;;;4957340;28;20043;-69
2021/11/03 08:46:56;;;;;;;12.00;7.32;;;9.90;90.40;;;;;;4957282;28;20039;-70
2021/11/03 08:49:22;;;;;;;13.07;8.32;;;10.00;90.30;;;;;;4948137;28;20042;-70
2021/11/03 08:51:48;;;;;;;13.25;7.88;;;10.10;90.10;;;;;;4949382;28;20379;-73
2021/11/03 08:54:17;;;;;;;13.68;8.07;;;10.20;90.00;;;;;;4959203;28;20041;-78
2021/11/03 08:56:43;;;;;;;12.98;9.18;;;10.40;89.50;;;;;;4956508;28;20695;-74
2021/11/03 08:59:10;;;;;;;11.90;7.93;;;10.50;88.40;;;;;;4956248;28;20126;-76
2021/11/03 09:01:40;;;;;;;10.68;7.78;;;10.70;88.40;;;;;;4957462;28;20742;-70
2021/11/03 09:04:06;;;;;;;13.38;8.68;;;10.90;87.60;;;;;;4950511;28;20098;-70
2021/11/03 09:06:33;;;;;;;14.90;8.57;;;11.10;87.20;;;;;;4953737;28;20046;-70
2021/11/03 09:08:59;;;;;;;10.60;7.78;;;11.20;87.00;;;;;;4960427;28;20081;-73
2021/11/03 09:11:27;;;;;;;14.38;9.07;;;11.40;85.90;;;;;;4955862;28;20037;-73
2021/11/03 09:13:53;;;;;;;10.07;7.35;;;11.50;85.30;;;;;;4957606;28;20121;-73
2021/11/03 09:16:20;;;;;;;13.15;8.10;;;11.60;85.00;;;;;;4973951;28;20035;-73
2021/11/03 09:18:46;;;;;;;13.30;8.00;;;11.70;85.00;;;;;;4958882;28;20507;-72
2021/11/03 09:21:12;;;;;;;14.10;8.25;;;11.80;84.80;;;;;;4955335;28;20039;-74
2021/11/03 09:23:38;;;;;;;20.75;12.77;;;11.80;84.60;;;;;;4950764;28;20031;-73
2021/11/03 09:26:04;;;;;;;21.73;15.18;;;11.90;84.30;;;;;;4960008;28;20090;-72
2021/11/03 09:28:32;;;;;;;16.92;13.00;;;12.00;84.20;;;;;;4950709;28;20463;-74
2021/11/03 09:31:01;;;;;;;13.70;9.65;;;12.00;84.00;;;;;;4961351;28;20415;-75
2021/11/03 09:33:27;;;;;;;11.60;8.30;;;12.00;83.80;;;;;;4959504;28;20093;-74
2021/11/03 09:35:53;;;;;;;11.68;8.07;;;12.10;83.70;;;;;;4948084;28;20050;-74
2021/11/03 09:38:23;;;;;;;10.13;7.05;;;12.20;83.40;;;;;;4964828;28;20043;-72
2021/11/03 09:41:04;;;;;;;11.50;7.97;;;12.30;83.00;;;;;;4957635;28;20539;-71
2021/11/03 09:43:37;;;;;;;10.95;7.35;;;12.30;82.80;;;;;;4958943;28;20438;-71
2021/11/03 09:46:18;;;;;;;11.20;7.05;;;12.40;82.40;;;;;;4960621;28;20222;-72
2021/11/03 09:48:45;;;;;;;13.13;7.93;;;12.40;82.20;;;;;;4954743;28;20049;-71
2021/11/03 09:51:19;;;;;;;9.95;7.00;;;12.50;81.80;;;;;;4955650;28;20046;-71
2021/11/03 09:53:51;;;;;;;10.27;6.55;;;12.70;81.50;;;;;;4970333;28;20039;-71
2021/11/03 09:56:20;;;;;;;11.45;6.78;;;12.80;80.60;;;;;;4956371;28;20043;-72
2021/11/03 09:59:10;;;;;;;11.73;7.18;;;13.00;80.30;;;;;;4961180;28;20808;-72
2021/11/03 10:02:04;;;;;;;13.00;7.13;;;13.10;80.20;;;;;;4957965;28;20396;-73
2021/11/03 10:04:57;;;;;;;10.50;6.82;;;13.30;79.50;;;;;;4959914;28;20047;-71
2021/11/03 10:08:10;;;;;;;9.50;6.65;;;13.50;78.30;;;;;;4972269;28;20109;-71
2021/11/03 10:10:41;;;;;;;9.90;6.70;;;13.60;78.50;;;;;;4950395;28;20038;-72
2021/11/03 10:13:23;;;;;;;10.25;6.60;;;13.80;77.70;;;;;;4960270;28;20111;-73
2021/11/03 10:16:27;;;;;;;10.80;6.53;;;13.80;77.80;;;;;;4956823;28;20121;-75
2021/11/03 10:19:11;;;;;;;10.40;6.90;;;14.10;77.20;;;;;;4933868;29;20043;-72
2021/11/03 10:22:00;;;;;;;14.00;8.40;;;14.30;76.20;;;;;;4955572;28;20047;-74
2021/11/03 10:24:37;;;;;;;12.77;8.32;;;14.60;75.90;;;;;;4962485;28;20070;-73
2021/11/03 10:27:09;;;;;;;9.77;5.80;;;14.80;74.90;;;;;;4959758;28;20085;-73
2021/11/03 10:29:40;;;;;;;7.32;5.97;;;14.90;73.60;;;;;;4958503;28;20035;-72
2021/11/03 10:32:09;;;;;;;7.38;5.85;;;14.80;73.00;;;;;;4958971;28;20031;-73
2021/11/03 10:34:34;;;;;;;9.13;6.28;;;14.80;73.40;;;;;;4952471;28;20030;-73
2021/11/03 10:37:03;;;;;;;7.35;5.35;;;14.80;74.00;;;;;;4958547;28;20073;-73
2021/11/03 10:39:40;;;;;;;11.15;5.97;;;14.80;73.00;;;;;;4956073;28;20035;-73
2021/11/03 10:42:22;;;;;;;8.30;5.45;;;14.90;72.70;;;;;;4956458;28;20035;-73
2021/11/03 10:45:10;;;;;;;6.97;4.97;;;14.90;72.50;;;;;;4960554;28;20074;-73
2021/11/03 10:47:36;;;;;;;7.30;4.85;;;15.00;71.30;;;;;;4959094;28;20062;-70
2021/11/03 10:50:23;;;;;;;7.60;5.35;;;14.90;71.90;;;;;;4952854;28;20049;-70
2021/11/03 10:52:57;;;;;;;9.63;6.13;;;14.80;71.80;;;;;;4957156;28;20030;-74
2021/11/03 10:55:47;;;;;;;7.85;5.22;;;14.70;71.90;;;;;;4960488;28;20625;-73
2021/11/03 10:58:13;;;;;;;5.97;4.85;;;14.50;71.90;;;;;;4948881;28;20046;-73
2021/11/03 11:00:59;;;;;;;8.18;5.25;;;14.50;72.60;;;;;;4958723;28;20041;-71
2021/11/03 11:03:42;;;;;;;6.45;5.28;;;14.60;72.40;;;;;;4950368;28;20055;-71
2021/11/03 11:06:20;;;;;;;7.10;5.03;;;14.60;72.00;;;;;;4969009;28;20042;-73
2021/11/03 11:08:58;;;;;;;8.35;4.45;;;14.80;71.30;;;;;;4951431;28;20102;-71
2021/11/03 11:11:29;;;;;;;7.75;5.15;;;14.90;70.70;;;;;;4954734;28;20126;-71
2021/11/03 11:14:05;;;;;;;7.38;5.05;;;15.00;70.80;;;;;;4951611;28;20035;-73
2021/11/03 11:16:37;;;;;;;6.50;5.28;;;15.10;69.80;;;;;;4946570;28;20046;-70
2021/11/03 11:19:31;;;;;;;6.10;3.95;;;15.10;69.50;;;;;;4972258;28;20513;-70
2021/11/03 11:22:20;;;;;;;7.32;5.00;;;15.00;70.60;;;;;;4955889;28;20519;-69
2021/11/03 11:25:14;;;;;;;7.72;4.35;;;15.10;70.30;;;;;;4973461;28;20101;-69
2021/11/03 11:28:12;;;;;;;8.73;5.50;;;15.10;69.30;;;;;;4956418;28;20142;-70
2021/11/03 11:30:48;;;;;;;6.65;5.05;;;15.20;67.90;;;;;;4947989;28;20038;-69
2021/11/03 11:33:23;;;;;;;5.05;4.00;;;15.00;67.60;;;;;;4954064;28;20034;-69
2021/11/03 11:36:07;;;;;;;6.25;4.32;;;14.80;68.70;;;;;;4960120;28;20047;-70
2021/11/03 11:39:03;;;;;;;5.30;4.05;;;14.40;70.90;;;;;;4956102;28;20192;-69
2021/11/03 11:41:47;;;;;;;5.47;4.55;;;13.90;72.60;;;;;;4954520;28;20047;-77
2021/11/03 11:44:23;;;;;;;4.20;3.65;;;13.60;74.10;;;;;;4946236;28;20039;-78
2021/11/03 11:46:49;;;;;;;6.18;3.58;;;13.40;75.00;;;;;;4951977;28;20038;-71
2021/11/03 11:49:35;;;;;;;5.22;3.90;;;13.30;74.20;;;;;;4954943;28;20046;-79
2021/11/03 11:52:09;;;;;;;6.55;3.70;;;13.20;73.30;;;;;;4951901;28;20050;-79
2021/11/03 11:54:40;;;;;;;4.43;3.75;;;13.10;74.60;;;;;;4945751;28;20032;-79
2021/11/03 11:57:13;;;;;;;3.90;3.50;;;13.00;74.80;;;;;;4951548;28;20098;-79
2021/11/03 12:00:02;;;;;;;5.55;3.03;;;13.00;75.20;;;;;;4952086;28;20045;-79
2021/11/03 12:02:52;;;;;;;4.55;3.10;;;13.00;76.10;;;;;;4955459;28;20043;-79
2021/11/03 12:05:20;;;;;;;4.53;3.30;;;13.00;73.50;;;;;;4969437;28;20129;-79
2021/11/03 12:08:16;;;;;;;3.60;2.55;;;13.00;74.10;;;;;;4949981;28;20115;-79
2021/11/03 12:10:55;;;;;;;2.30;2.10;;;13.00;73.10;;;;;;4948387;28;20070;-80
2021/11/03 12:13:32;;;;;;;2.20;2.00;;;13.10;72.70;;;;;;4945984;28;20035;-81
2021/11/03 12:16:04;;;;;;;2.05;1.85;;;13.20;71.00;;;;;;4954831;28;20043;-78
2021/11/03 12:18:33;;;;;;;2.35;1.80;;;13.20;70.10;;;;;;4956752;28;20046;-79
2021/11/03 12:21:02;;;;;;;2.47;2.10;;;13.40;69.90;;;;;;4956585;28;20038;-80
2021/11/03 12:23:51;;;;;;;2.33;1.98;;;13.40;70.20;;;;;;4953379;28;20083;-80
2021/11/03 12:26:29;;;;;;;1.40;1.20;;;13.40;70.60;;;;;;4954053;28;20430;-79
2021/11/03 12:29:00;;;;;;;2.42;1.38;;;13.40;68.70;;;;;;4965917;28;20035;-79
2021/11/03 12:31:44;;;;;;;4.38;1.73;;;13.50;68.90;;;;;;4947901;28;20030;-78
2021/11/03 12:34:10;;;;;;;2.65;2.20;;;13.60;69.60;;;;;;4951337;28;20071;-82
2021/11/03 12:36:42;;;;;;;2.55;1.92;;;13.90;70.50;;;;;;4956212;28;20141;-79
2021/11/03 12:39:12;;;;;;;3.58;2.05;;;13.90;70.10;;;;;;4969603;28;20035;-80
2021/11/03 12:41:47;;;;;;;2.10;1.90;;;14.00;67.70;;;;;;4941040;28;20115;-80
2021/11/03 12:44:21;;;;;;;3.03;1.70;;;14.00;67.40;;;;;;4947315;28;20035;-80
2021/11/03 12:46:47;;;;;;;1.80;1.70;;;14.10;66.20;;;;;;4959511;28;20773;-82
2021/11/03 12:49:20;;;;;;;1.65;1.55;;;14.10;66.70;;;;;;4947138;28;20059;-80
2021/11/03 12:51:56;;;;;;;3.20;1.80;;;14.00;67.20;;;;;;4952720;28;20113;-81
2021/11/03 12:54:26;;;;;;;2.25;1.55;;;13.80;69.00;;;;;;4952663;28;20039;-80
2021/11/03 12:56:56;;;;;;;1.60;1.23;;;13.70;68.90;;;;;;4951208;28;20038;-81
2021/11/03 12:59:26;;;;;;;3.35;1.23;;;13.60;68.30;;;;;;4958424;28;20051;-81
2021/11/03 13:02:01;;;;;;;4.50;1.30;;;13.40;67.90;;;;;;4958137;28;20689;-82